Time;durP1;ratioP1;P1;durP2;ratioP2;P2;SDS_P1;SDS_P2;PMS_P1;PMS_P2;Temp;Humidity;BMP_temperature;BMP_pressure;BME280_temperature;BME280_humidity;BME280_pressure;Samples;Min_cycle;Max_cycle;Signal;HPM_P1;HPM_P2
2021/12/30 00:01:07;;;;;;;24.77;4.28;;;;;;;9.05;100.00;98729.44;5032449;28;20050;-83
2021/12/30 00:03:34;;;;;;;21.25;4.47;;;;;;;9.37;100.00;98737.00;5010144;28;20054;-83
2021/12/30 00:06:02;;;;;;;28.80;5.13;;;;;;;9.44;100.00;98748.72;5011746;28;20404;-84
2021/12/30 00:08:28;;;;;;;19.73;5.05;;;;;;;9.52;100.00;98732.53;5013668;28;20053;-83
2021/12/30 00:10:56;;;;;;;18.33;3.67;;;;;;;9.91;100.00;98752.59;5014600;28;20514;-83
2021/12/30 00:13:23;;;;;;;21.23;4.40;;;;;;;9.92;100.00;98740.38;5015204;28;20427;-83
2021/12/30 00:15:51;;;;;;;19.92;3.90;;;;;;;10.11;100.00;98745.19;5031983;28;20064;-83
2021/12/30 00:18:18;;;;;;;19.40;4.40;;;;;;;10.10;100.00;98749.59;5013452;28;20045;-84
2021/12/30 00:20:46;;;;;;;19.20;3.50;;;;;;;10.25;100.00;98755.56;5014618;28;20052;-83
2021/12/30 00:23:12;;;;;;;21.40;4.03;;;;;;;10.42;100.00;98762.28;5031913;28;20560;-83
2021/12/30 00:25:41;;;;;;;17.58;4.97;;;;;;;10.42;100.00;98767.53;5030093;28;20053;-85
2021/12/30 00:28:21;;;;;;;19.60;4.22;;;;;;;10.07;100.00;98753.25;5034667;28;20502;-82
2021/12/30 00:30:50;;;;;;;16.38;3.40;;;;;;;10.72;100.00;98771.59;5013268;28;20052;-83
2021/12/30 00:33:18;;;;;;;19.30;4.60;;;;;;;10.45;100.00;98760.31;5014188;28;20049;-83
2021/12/30 00:35:49;;;;;;;18.38;4.18;;;;;;;10.66;100.00;98770.25;5014889;28;20057;-83
2021/12/30 00:38:17;;;;;;;22.55;4.32;;;;;;;10.49;100.00;98752.25;5013590;28;20471;-83
2021/12/30 00:40:44;;;;;;;25.45;4.18;;;;;;;10.64;100.00;98766.88;5032144;28;20099;-83
2021/12/30 00:43:11;;;;;;;15.88;3.67;;;;;;;10.54;100.00;98769.31;5013781;28;20085;-84
2021/12/30 00:45:38;;;;;;;18.83;4.50;;;;;;;10.65;100.00;98771.19;5013895;28;20053;-83
2021/12/30 00:48:06;;;;;;;24.83;3.60;;;;;;;10.74;100.00;98762.69;5013564;28;20117;-83
2021/12/30 00:50:36;;;;;;;16.17;3.65;;;;;;;10.83;100.00;98766.44;5014610;28;20061;-84
2021/12/30 00:53:05;;;;;;;17.08;3.67;;;;;;;10.74;100.00;98759.25;5014000;28;20059;-83
2021/12/30 00:55:33;;;;;;;16.40;3.45;;;;;;;10.92;100.00;98759.72;5013841;28;20046;-83
2021/12/30 00:58:01;;;;;;;26.35;4.10;;;;;;;11.07;100.00;98736.88;5014786;28;20045;-83
2021/12/30 01:00:28;;;;;;;23.35;5.13;;;;;;;10.93;100.00;98743.91;5018141;28;20056;-83
2021/12/30 01:02:55;;;;;;;20.67;3.45;;;;;;;11.25;100.00;98726.84;5018178;28;20131;-84
2021/12/30 01:05:22;;;;;;;21.65;4.35;;;;;;;10.88;100.00;98773.97;5023160;28;20041;-83
2021/12/30 01:07:50;;;;;;;17.80;3.83;;;;;;;10.58;100.00;98746.38;5034744;28;20061;-83
2021/12/30 01:10:20;;;;;;;18.10;4.57;;;;;;;10.70;100.00;98752.56;5017846;28;20491;-83
2021/12/30 01:12:48;;;;;;;19.27;3.55;;;;;;;10.91;100.00;98761.50;5017724;28;20057;-84
2021/12/30 01:15:18;;;;;;;16.30;4.63;;;;;;;10.80;100.00;98783.22;5017694;28;20499;-84
2021/12/30 01:20:15;;;;;;;17.67;3.90;;;;;;;10.79;100.00;98772.84;5034868;28;20060;-84
2021/12/30 01:22:43;;;;;;;23.98;4.07;;;;;;;10.68;100.00;98768.34;5035316;28;20053;-84
2021/12/30 01:25:11;;;;;;;15.60;3.45;;;;;;;10.68;100.00;98785.81;5017475;28;20053;-83
2021/12/30 01:27:40;;;;;;;17.20;4.47;;;;;;;10.69;100.00;98790.94;5031159;28;20052;-83
2021/12/30 01:30:10;;;;;;;19.48;3.38;;;;;;;10.60;100.00;98791.59;5017839;28;20048;-84
2021/12/30 01:32:38;;;;;;;20.65;3.33;;;;;;;10.44;100.00;98781.34;5017921;28;20056;-84
2021/12/30 01:35:08;;;;;;;16.17;4.45;;;;;;;10.54;100.00;98803.31;5017593;28;20053;-83
2021/12/30 01:37:35;;;;;;;16.80;3.20;;;;;;;10.84;100.00;98802.16;5034705;28;20057;-84
2021/12/30 01:40:05;;;;;;;16.88;3.35;;;;;;;10.55;100.00;98818.09;5017497;28;20402;-84
2021/12/30 01:42:33;;;;;;;22.92;4.75;;;;;;;10.60;100.00;98817.75;5017923;28;20502;-84
2021/12/30 01:44:59;;;;;;;14.05;2.83;;;;;;;10.77;100.00;98820.06;5017330;28;20045;-84
2021/12/30 01:47:26;;;;;;;24.45;5.40;;;;;;;10.48;100.00;98810.75;5017360;28;20053;-84
2021/12/30 01:49:53;;;;;;;20.10;3.58;;;;;;;10.54;100.00;98828.66;5033428;28;20053;-84
2021/12/30 01:52:20;;;;;;;21.15;4.82;;;;;;;10.44;100.00;98828.44;5034410;28;20483;-84
2021/12/30 01:54:48;;;;;;;21.55;4.45;;;;;;;9.93;100.00;98786.47;5034057;28;20080;-84
2021/12/30 01:57:15;;;;;;;18.70;3.67;;;;;;;10.26;100.00;98805.16;5038749;28;20482;-84
2021/12/30 01:59:42;;;;;;;19.95;4.68;;;;;;;10.27;100.00;98826.94;5016300;28;20045;-84
2021/12/30 02:02:09;;;;;;;15.07;4.20;;;;;;;10.37;100.00;98827.16;5017570;28;20380;-84
2021/12/30 02:04:36;;;;;;;17.50;2.65;;;;;;;10.44;100.00;98824.03;5034679;28;20529;-84
2021/12/30 02:07:03;;;;;;;14.05;3.72;;;;;;;10.67;100.00;98833.88;5016320;28;20411;-84
2021/12/30 02:09:31;;;;;;;17.52;3.78;;;;;;;10.39;100.00;98818.28;5033321;28;20049;-84
2021/12/30 02:12:00;;;;;;;17.83;4.07;;;;;;;10.56;100.00;98826.78;5017160;28;20385;-84
2021/12/30 02:14:27;;;;;;;19.55;3.63;;;;;;;10.40;100.00;98804.25;5016633;28;20111;-84
2021/12/30 02:16:54;;;;;;;25.30;3.78;;;;;;;10.54;100.00;98824.25;5017421;28;20380;-84
2021/12/30 02:19:21;;;;;;;14.60;3.28;;;;;;;10.59;100.00;98816.09;5016026;28;20088;-84
2021/12/30 02:21:48;;;;;;;18.45;3.20;;;;;;;10.26;100.00;98830.47;5017325;28;20045;-84
2021/12/30 02:24:15;;;;;;;17.15;3.60;;;;;;;10.47;100.00;98846.56;5016808;28;20059;-84
2021/12/30 02:26:42;;;;;;;18.55;3.70;;;;;;;10.51;100.00;98834.09;5016614;28;20056;-84
2021/12/30 02:29:09;;;;;;;20.70;3.00;;;;;;;10.77;100.00;98827.09;5015251;28;20064;-84
2021/12/30 02:31:35;;;;;;;17.30;3.80;;;;;;;10.59;100.00;98823.97;5034366;28;20133;-84
2021/12/30 02:34:02;;;;;;;15.20;3.35;;;;;;;10.58;100.00;98840.59;5034408;28;20054;-84
2021/12/30 02:36:33;;;;;;;15.63;3.08;;;;;;;10.27;100.00;98840.84;5015901;28;20057;-84
2021/12/30 02:39:03;;;;;;;24.10;4.50;;;;;;;10.07;100.00;98846.53;5015916;28;20055;-84
2021/12/30 02:41:33;;;;;;;17.08;3.60;;;;;;;10.20;100.00;98862.28;5016450;28;20495;-84
2021/12/30 02:44:03;;;;;;;17.23;4.18;;;;;;;10.19;100.00;98850.13;5016121;28;20133;-84
2021/12/30 02:46:30;;;;;;;17.48;3.00;;;;;;;10.04;100.00;98857.22;5033398;28;20053;-84
2021/12/30 02:49:00;;;;;;;21.75;3.42;;;;;;;9.79;100.00;98848.34;5015412;28;20064;-84
2021/12/30 02:51:27;;;;;;;18.35;3.70;;;;;;;9.65;100.00;98833.56;5016109;28;20046;-84
2021/12/30 02:53:55;;;;;;;17.23;3.85;;;;;;;9.97;100.00;98854.16;5016229;28;20046;-84
2021/12/30 02:56:23;;;;;;;15.13;3.15;;;;;;;9.89;100.00;98852.03;5015981;28;20049;-83
2021/12/30 02:58:50;;;;;;;10.73;2.58;;;;;;;10.04;100.00;98863.28;5031429;28;20079;-84
2021/12/30 03:01:27;;;;;;;17.48;2.70;;;;;;;10.04;100.00;98857.22;5014901;28;20046;-84
2021/12/30 03:04:00;;;;;;;16.02;3.28;;;;;;;9.88;100.00;98865.22;5015215;28;20053;-84
2021/12/30 03:06:28;;;;;;;15.07;3.15;;;;;;;9.98;100.00;98875.91;5012784;28;20132;-84
2021/12/30 03:08:55;;;;;;;13.07;3.10;;;;;;;9.91;100.00;98866.78;5025209;28;20800;-84
2021/12/30 03:11:24;;;;;;;9.18;2.58;;;;;;;9.75;100.00;98865.16;5016021;28;20048;-84
2021/12/30 03:13:53;;;;;;;17.20;3.17;;;;;;;9.52;100.00;98845.72;5031779;28;20049;-83
2021/12/30 03:16:29;;;;;;;16.02;3.30;;;;;;;9.59;100.00;98846.16;5032510;28;20049;-84
2021/12/30 03:18:57;;;;;;;13.32;2.88;;;;;;;9.71;100.00;98840.16;5021824;28;20132;-84
2021/12/30 03:21:26;;;;;;;14.80;3.05;;;;;;;9.49;100.00;98846.75;5015070;28;20496;-83
2021/12/30 03:23:54;;;;;;;13.80;2.28;;;;;;;9.67;100.00;98854.38;5033092;28;20045;-84
2021/12/30 03:26:22;;;;;;;14.98;3.60;;;;;;;9.50;100.00;98845.81;5015329;28;20048;-84
2021/12/30 03:28:50;;;;;;;13.55;2.50;;;;;;;9.44;100.00;98838.38;5021721;28;20059;-84
2021/12/30 03:31:19;;;;;;;23.02;4.30;;;;;;;9.49;100.00;98867.66;5015869;28;20384;-84
2021/12/30 03:33:47;;;;;;;13.63;3.10;;;;;;;9.30;100.00;98828.78;5016277;28;20049;-84
2021/12/30 03:36:15;;;;;;;10.55;2.63;;;;;;;9.66;100.00;98845.66;5032973;28;20411;-84
2021/12/30 03:38:45;;;;;;;13.15;2.85;;;;;;;9.70;100.00;98859.38;5014431;28;20046;-84
2021/12/30 03:41:14;;;;;;;14.43;2.70;;;;;;;9.64;100.00;98865.00;5015180;28;20045;-83
2021/12/30 03:43:41;;;;;;;18.75;3.70;;;;;;;9.55;100.00;98848.13;5030910;28;20053;-83
2021/12/30 03:46:09;;;;;;;21.50;3.90;;;;;;;9.06;100.00;98851.19;5032572;28;20156;-84
2021/12/30 03:48:41;;;;;;;13.90;3.95;;;;;;;9.24;100.00;98862.28;5014353;28;20487;-83
2021/12/30 03:51:13;;;;;;;10.50;2.78;;;;;;;9.05;100.00;98860.81;5031601;28;20426;-84
2021/12/30 03:53:42;;;;;;;16.08;2.80;;;;;;;9.05;100.00;98846.94;5031949;28;20076;-83
2021/12/30 03:56:12;;;;;;;16.73;2.63;;;;;;;9.02;100.00;98840.09;5032281;28;20053;-84
2021/12/30 03:58:41;;;;;;;14.50;3.60;;;;;;;9.17;100.00;98845.31;5030130;28;20049;-84
2021/12/30 04:01:10;;;;;;;13.32;3.47;;;;;;;9.56;100.00;98835.91;5030577;28;20501;-84
2021/12/30 04:03:38;;;;;;;14.13;3.38;;;;;;;9.58;100.00;98832.28;5034908;28;20071;-84
2021/12/30 04:06:04;;;;;;;11.85;2.83;;;;;;;9.67;100.00;98843.91;5051674;28;20144;-83
2021/12/30 04:08:31;;;;;;;11.65;2.35;;;;;;;9.65;100.00;98862.31;5021132;28;20139;-84
2021/12/30 04:10:58;;;;;;;12.60;2.50;;;;;;;9.75;100.00;98844.25;5015260;28;20494;-84
2021/12/30 04:13:25;;;;;;;15.45;2.63;;;;;;;9.79;100.00;98855.34;5015047;28;20053;-84
2021/12/30 04:15:53;;;;;;;11.82;2.47;;;;;;;9.79;100.00;98857.94;5015139;28;20499;-84
2021/12/30 04:18:20;;;;;;;15.38;3.28;;;;;;;9.77;100.00;98872.91;5031390;28;20045;-85
2021/12/30 04:20:47;;;;;;;11.35;2.25;;;;;;;9.77;100.00;98880.72;5014685;28;20045;-84
2021/12/30 04:23:15;;;;;;;13.75;3.55;;;;;;;9.69;100.00;98878.63;5014666;28;20467;-84
2021/12/30 04:25:42;;;;;;;13.02;2.50;;;;;;;9.74;100.00;98894.00;5014664;28;20049;-85
2021/12/30 04:28:09;;;;;;;11.32;2.30;;;;;;;9.67;100.00;98886.56;5023048;28;20124;-84
2021/12/30 04:30:36;;;;;;;10.20;2.67;;;;;;;9.77;100.00;98880.72;5014821;28;20041;-85
2021/12/30 04:33:04;;;;;;;18.08;3.92;;;;;;;9.71;100.00;98894.22;5013766;28;20057;-86
2021/12/30 04:35:32;;;;;;;13.93;2.53;;;;;;;9.92;100.00;98881.53;5014101;28;20057;-85
2021/12/30 04:37:59;;;;;;;16.42;2.85;;;;;;;9.84;100.00;98872.44;5014932;28;20476;-85
2021/12/30 04:40:27;;;;;;;12.88;3.00;;;;;;;10.10;100.00;98872.50;5014689;28;20407;-85
2021/12/30 04:42:55;;;;;;;13.40;2.55;;;;;;;10.24;100.00;98872.44;5014144;28;20136;-85
2021/12/30 04:45:22;;;;;;;11.52;2.70;;;;;;;10.31;100.00;98872.91;5031545;28;20484;-85
2021/12/30 04:47:49;;;;;;;11.23;2.50;;;;;;;10.53;100.00;98864.44;5013854;28;20084;-85
2021/12/30 04:50:16;;;;;;;12.55;3.08;;;;;;;10.41;100.00;98876.59;5031022;28;20517;-85
2021/12/30 04:52:43;;;;;;;13.73;3.42;;;;;;;10.43;100.00;98893.00;5011398;28;20046;-85
2021/12/30 04:55:10;;;;;;;15.75;2.92;;;;;;;10.42;100.00;98883.47;5013524;28;20053;-85
2021/12/30 04:57:37;;;;;;;15.75;3.35;;;;;;;10.67;100.00;98891.47;5013422;28;20730;-85
2021/12/30 05:00:07;;;;;;;17.77;3.58;;;;;;;10.78;100.00;98892.44;5013124;28;20049;-83
2021/12/30 05:02:54;;;;;;;19.02;5.25;;;;;;;10.64;100.00;98893.38;5014252;28;20063;-82
2021/12/30 05:05:20;;;;;;;10.52;2.35;;;;;;;10.71;100.00;98900.78;5014664;28;20526;-83
2021/12/30 05:07:47;;;;;;;19.73;3.28;;;;;;;10.61;100.00;98885.72;5013280;28;20060;-82
2021/12/30 05:10:14;;;;;;;23.13;3.20;;;;;;;10.63;100.00;98899.53;5013747;28;20057;-83
2021/12/30 05:12:41;;;;;;;12.00;2.78;;;;;;;10.74;100.00;98897.97;5014176;28;20053;-83
2021/12/30 05:15:08;;;;;;;17.88;3.80;;;;;;;10.76;100.00;98917.84;5013891;28;20053;-83
2021/12/30 05:17:36;;;;;;;15.88;2.80;;;;;;;10.88;100.00;98920.59;5031301;28;20058;-83
2021/12/30 05:20:04;;;;;;;22.08;3.05;;;;;;;10.95;100.00;98922.69;5030454;28;20049;-83
2021/12/30 05:22:31;;;;;;;10.95;2.53;;;;;;;10.82;100.00;98916.63;5014195;28;20049;-83
2021/12/30 05:24:57;;;;;;;20.45;5.05;;;;;;;10.88;100.00;98921.44;5014289;28;20070;-83
2021/12/30 05:27:24;;;;;;;15.98;4.25;;;;;;;10.68;100.00;98916.69;5029421;28;20414;-83
2021/12/30 05:29:51;;;;;;;12.65;3.25;;;;;;;10.80;100.00;98923.72;5030879;28;20415;-83
2021/12/30 05:32:17;;;;;;;18.42;3.20;;;;;;;10.84;100.00;98901.66;5030411;28;20046;-83
2021/12/30 05:34:44;;;;;;;17.75;3.30;;;;;;;10.67;100.00;98930.72;5013950;28;20057;-83
2021/12/30 05:37:11;;;;;;;16.30;3.13;;;;;;;10.86;100.00;98935.59;5030533;28;20049;-83
2021/12/30 05:39:41;;;;;;;17.58;2.80;;;;;;;10.79;100.00;98927.28;5012725;28;20050;-83
2021/12/30 05:42:08;;;;;;;12.27;2.88;;;;;;;10.80;100.00;98918.47;5030969;28;20046;-84
2021/12/30 05:44:35;;;;;;;20.58;3.88;;;;;;;10.70;100.00;98925.31;5015277;28;20054;-84
2021/12/30 05:47:02;;;;;;;19.00;3.58;;;;;;;10.43;100.00;98926.19;5034256;28;20053;-84
2021/12/30 05:49:29;;;;;;;14.23;2.75;;;;;;;10.53;100.00;98901.06;5031407;28;20054;-84
2021/12/30 05:51:56;;;;;;;20.95;3.67;;;;;;;10.59;100.00;98923.41;5017150;28;20042;-84
2021/12/30 05:54:22;;;;;;;12.45;2.67;;;;;;;10.40;100.00;98911.53;5035472;28;20487;-84
2021/12/30 05:56:52;;;;;;;23.38;4.60;;;;;;;10.48;100.00;98928.50;5017236;28;20518;-84
2021/12/30 05:59:19;;;;;;;17.20;3.55;;;;;;;10.26;100.00;98901.09;5032708;28;20045;-85
2021/12/30 06:01:46;;;;;;;18.60;3.08;;;;;;;10.24;100.00;98914.28;5017249;28;20080;-84
2021/12/30 06:04:13;;;;;;;15.38;2.97;;;;;;;10.32;100.00;98920.81;5033565;28;20087;-84
2021/12/30 06:06:40;;;;;;;13.57;3.10;;;;;;;10.36;100.00;98932.78;5017080;28;20733;-84
2021/12/30 06:09:07;;;;;;;15.35;3.75;;;;;;;10.41;100.00;98922.81;5015680;28;20054;-84
2021/12/30 06:11:34;;;;;;;15.13;2.70;;;;;;;10.56;100.00;98937.50;5012984;28;20077;-84
2021/12/30 06:14:00;;;;;;;15.77;3.67;;;;;;;10.45;100.00;98945.25;5013396;28;20050;-83
2021/12/30 06:16:27;;;;;;;14.90;2.63;;;;;;;10.54;100.00;98959.50;5013301;28;20060;-84
2021/12/30 06:18:54;;;;;;;18.70;4.05;;;;;;;10.41;100.00;98972.53;5015853;28;20454;-84
2021/12/30 06:21:21;;;;;;;14.65;3.42;;;;;;;10.39;100.00;98950.84;5017021;28;20061;-83
2021/12/30 06:23:48;;;;;;;11.10;3.30;;;;;;;10.57;100.00;98940.97;5016192;28;20045;-84
2021/12/30 06:26:14;;;;;;;12.65;2.70;;;;;;;10.81;100.00;98957.66;5016526;28;20522;-84
2021/12/30 06:28:41;;;;;;;14.55;2.50;;;;;;;10.89;100.00;98958.91;5024459;28;20053;-84
2021/12/30 06:31:08;;;;;;;12.15;2.60;;;;;;;10.80;100.00;98961.22;5017064;28;20052;-84
2021/12/30 06:33:39;;;;;;;15.45;3.60;;;;;;;10.87;100.00;98952.94;5034250;28;20054;-83
2021/12/30 06:36:06;;;;;;;15.05;2.83;;;;;;;11.07;100.00;98968.16;5016534;28;20049;-83
2021/12/30 06:38:33;;;;;;;21.67;3.28;;;;;;;10.83;100.00;98961.00;5015152;28;20443;-83
2021/12/30 06:41:00;;;;;;;17.15;2.95;;;;;;;10.83;100.00;98963.63;5032419;28;20045;-84
2021/12/30 06:43:27;;;;;;;12.25;2.67;;;;;;;10.77;100.00;98961.44;5016351;28;20053;-84
2021/12/30 06:45:54;;;;;;;17.23;3.45;;;;;;;10.60;100.00;98983.47;5033515;28;20091;-84
2021/12/30 06:48:21;;;;;;;17.38;3.30;;;;;;;10.48;100.00;98988.66;5016894;28;20054;-84
2021/12/30 06:50:54;;;;;;;21.90;4.75;;;;;;;10.48;100.00;98997.34;5032904;28;20051;-84
2021/12/30 06:53:22;;;;;;;15.70;4.85;;;;;;;10.50;100.00;98999.88;5013430;28;20041;-84
2021/12/30 06:55:50;;;;;;;16.05;4.30;;;;;;;10.33;100.00;98983.50;5032708;28;20494;-84
2021/12/30 06:58:19;;;;;;;17.60;3.75;;;;;;;10.51;100.00;98983.25;5017921;28;20053;-84
2021/12/30 07:00:48;;;;;;;15.27;3.83;;;;;;;10.54;100.00;98983.06;5017807;28;20049;-84
2021/12/30 07:03:15;;;;;;;15.13;4.20;;;;;;;10.31;100.00;98961.84;5014886;28;20053;-84
2021/12/30 07:05:42;;;;;;;12.05;3.47;;;;;;;10.18;100.00;98953.06;5015189;28;20041;-84
2021/12/30 07:08:09;;;;;;;12.38;4.30;;;;;;;10.46;100.00;98959.97;5014849;28;20072;-84
2021/12/30 07:10:36;;;;;;;9.25;2.63;;;;;;;10.38;100.00;98947.41;5033318;28;20049;-84
2021/12/30 07:13:02;;;;;;;16.92;2.92;;;;;;;10.27;100.00;98952.50;5014515;28;20050;-83
2021/12/30 07:15:29;;;;;;;11.80;3.03;;;;;;;10.45;100.00;98960.94;5032787;28;20053;-83
2021/12/30 07:17:56;;;;;;;11.60;3.05;;;;;;;10.64;100.00;98950.06;5031824;28;20397;-83
2021/12/30 07:20:23;;;;;;;15.82;2.90;;;;;;;10.57;100.00;98948.81;5014687;28;20053;-84
2021/12/30 07:22:49;;;;;;;15.48;2.95;;;;;;;10.55;100.00;98963.78;5012317;28;20076;-83
2021/12/30 07:25:17;;;;;;;10.52;2.10;;;;;;;10.51;100.00;98955.28;5014197;28;20045;-83
2021/12/30 07:27:52;;;;;;;6.22;1.73;;;;;;;10.65;100.00;98954.38;5013154;28;20049;-84
2021/12/30 07:30:21;;;;;;;8.60;2.50;;;;;;;10.51;100.00;98960.53;5014858;28;20056;-83
2021/12/30 07:32:48;;;;;;;6.85;1.95;;;;;;;10.52;100.00;98940.44;5022589;28;20064;-83
2021/12/30 07:35:16;;;;;;;5.40;1.58;;;;;;;10.57;100.00;98960.13;5014743;28;21290;-83
2021/12/30 07:37:44;;;;;;;7.97;2.40;;;;;;;10.42;100.00;98951.50;5011386;28;20047;-83
2021/12/30 07:40:11;;;;;;;7.43;1.63;;;;;;;10.66;100.00;98969.16;5015364;28;20096;-84
2021/12/30 07:42:38;;;;;;;7.60;2.28;;;;;;;10.66;100.00;98963.94;5031330;28;20046;-83
2021/12/30 07:45:06;;;;;;;11.80;1.90;;;;;;;10.87;100.00;98987.84;5015025;28;20052;-83
2021/12/30 07:47:32;;;;;;;5.20;1.60;;;;;;;10.78;100.00;98991.06;5030779;28;20053;-83
2021/12/30 07:49:59;;;;;;;8.18;2.95;;;;;;;10.63;100.00;98998.97;5031924;28;20541;-84
2021/12/30 07:52:26;;;;;;;3.85;1.40;;;;;;;10.68;100.00;99003.06;5014569;28;20056;-83
2021/12/30 07:54:53;;;;;;;4.82;1.58;;;;;;;10.82;100.00;99016.09;5014866;28;20057;-83
2021/12/30 07:57:23;;;;;;;4.38;1.45;;;;;;;10.96;100.00;99016.03;5032210;28;20061;-84
2021/12/30 07:59:50;;;;;;;5.45;1.50;;;;;;;10.83;100.00;99036.94;5013900;28;20053;-83
2021/12/30 08:02:18;;;;;;;8.57;1.40;;;;;;;10.76;100.00;99024.34;5031411;28;20050;-84
2021/12/30 08:04:45;;;;;;;7.50;1.83;;;;;;;10.62;100.00;99051.41;5014828;28;20057;-84
2021/12/30 08:07:12;;;;;;;3.75;1.27;;;;;;;11.09;100.00;99055.31;5014366;28;20042;-84
2021/12/30 08:09:38;;;;;;;4.47;1.40;;;;;;;11.15;100.00;99061.94;5013256;28;20079;-84
2021/12/30 08:12:05;;;;;;;4.32;1.30;;;;;;;10.98;100.00;99060.44;5014407;28;20085;-84
2021/12/30 08:14:32;;;;;;;5.20;1.27;;;;;;;11.17;100.00;99021.63;5023525;28;20472;-83
2021/12/30 08:17:00;;;;;;;3.90;1.30;;;;;;;11.23;100.00;99036.06;5034286;28;20132;-83
2021/12/30 08:19:32;;;;;;;4.53;1.42;;;;;;;11.24;100.00;99011.53;5020394;28;20083;-84
2021/12/30 08:21:59;;;;;;;3.33;1.10;;;;;;;11.26;100.00;99008.81;5034734;28;20048;-83
2021/12/30 08:24:27;;;;;;;2.10;1.00;;;;;;;11.34;100.00;99017.84;5028321;28;20067;-83
2021/12/30 08:27:12;;;;;;;2.92;1.05;;;;;;;11.64;100.00;99074.34;5018997;28;20055;-83
2021/12/30 08:29:41;;;;;;;3.80;1.30;;;;;;;11.37;100.00;99043.00;5034416;28;20051;-83
2021/12/30 08:32:11;;;;;;;6.18;1.73;;;;;;;11.20;100.00;99026.63;5021588;28;20048;-84
2021/12/30 08:34:41;;;;;;;7.47;1.50;;;;;;;11.33;100.00;99036.28;5016656;28;20083;-83
2021/12/30 08:37:09;;;;;;;2.83;1.30;;;;;;;11.23;100.00;99036.06;5034655;28;20076;-83
2021/12/30 08:39:36;;;;;;;3.85;1.40;;;;;;;11.18;100.00;99048.63;5017293;28;20075;-84
2021/12/30 08:42:05;;;;;;;5.55;1.80;;;;;;;11.10;100.00;99029.97;5032883;28;20049;-83
2021/12/30 08:44:32;;;;;;;5.88;1.60;;;;;;;11.02;100.00;99056.69;5034453;28;20474;-83
2021/12/30 08:46:58;;;;;;;5.53;1.65;;;;;;;11.20;100.00;99083.44;5036181;28;20045;-82
2021/12/30 08:49:25;;;;;;;6.07;1.85;;;;;;;11.11;100.00;99044.75;5032635;28;20136;-83
2021/12/30 08:51:52;;;;;;;6.57;1.77;;;;;;;10.87;100.00;99066.41;5024379;28;20065;-82
2021/12/30 08:54:19;;;;;;;4.93;1.55;;;;;;;10.89;100.00;99048.81;5034023;28;20059;-83
2021/12/30 08:56:46;;;;;;;3.67;1.17;;;;;;;11.06;100.00;99060.75;5023531;28;20072;-84
2021/12/30 08:59:14;;;;;;;3.75;1.40;;;;;;;11.00;100.00;99069.88;5029928;28;20052;-83
2021/12/30 09:01:41;;;;;;;4.88;1.90;;;;;;;10.95;100.00;99045.75;5027612;28;20077;-83
2021/12/30 09:04:08;;;;;;;5.38;1.48;;;;;;;10.98;100.00;99079.63;5033996;28;20095;-83
2021/12/30 09:06:35;;;;;;;3.13;1.20;;;;;;;11.14;100.00;99092.53;5026743;28;20085;-84
2021/12/30 09:09:02;;;;;;;2.25;1.00;;;;;;;10.97;100.00;99077.09;5013511;28;20052;-83
2021/12/30 09:11:29;;;;;;;3.72;1.20;;;;;;;11.01;100.00;99092.50;5033268;28;20042;-81
2021/12/30 09:13:56;;;;;;;6.05;1.40;;;;;;;10.78;100.00;99054.75;5031937;28;20057;-81
2021/12/30 09:16:23;;;;;;;3.45;1.20;;;;;;;10.81;100.00;99099.03;5026993;28;20049;-81
2021/12/30 09:18:50;;;;;;;2.03;1.10;;;;;;;10.82;100.00;99087.63;5016884;28;20049;-81
2021/12/30 09:21:16;;;;;;;2.55;1.25;;;;;;;10.97;100.00;99126.84;5019220;28;20051;-82
2021/12/30 09:23:43;;;;;;;3.33;1.10;;;;;;;10.67;100.00;99075.53;5037443;28;20154;-82
2021/12/30 09:26:10;;;;;;;4.03;1.20;;;;;;;10.57;100.00;99056.09;5036276;28;20071;-81
2021/12/30 09:28:37;;;;;;;2.15;1.00;;;;;;;10.73;100.00;99077.75;5031249;28;20053;-82
2021/12/30 09:31:03;;;;;;;3.17;1.15;;;;;;;11.06;100.00;99143.75;5037101;28;20056;-84
2021/12/30 09:33:30;;;;;;;2.78;1.10;;;;;;;10.71;100.00;99107.56;5039238;28;20060;-86
2021/12/30 09:36:00;;;;;;;2.30;1.00;;;;;;;10.78;100.00;99114.09;5041024;28;20071;-86
2021/12/30 09:38:26;;;;;;;3.25;1.20;;;;;;;10.78;100.00;99101.00;5046420;28;20046;-86
2021/12/30 09:40:55;;;;;;;2.20;1.10;;;;;;;10.90;100.00;99129.00;5029517;28;20052;-86
2021/12/30 09:43:22;;;;;;;2.60;1.10;;;;;;;10.69;100.00;99112.91;5044845;28;20090;-87
2021/12/30 09:45:53;;;;;;;2.65;1.20;;;;;;;10.67;100.00;99113.94;5038017;28;20113;-86
2021/12/30 09:48:21;;;;;;;2.72;1.10;;;;;;;10.83;100.00;99107.63;5027518;28;20045;-86
2021/12/30 09:50:52;;;;;;;3.08;1.20;;;;;;;10.92;100.00;99092.25;5027973;28;20045;-85
2021/12/30 09:53:25;;;;;;;2.00;1.10;;;;;;;10.81;100.00;99112.13;5027309;28;20076;-85
2021/12/30 09:55:56;;;;;;;1.70;1.10;;;;;;;11.13;100.00;99138.00;5037129;28;20038;-86
2021/12/30 09:58:24;;;;;;;2.85;1.30;;;;;;;11.45;100.00;99144.69;5023452;28;20075;-86
2021/12/30 10:00:51;;;;;;;2.17;1.00;;;;;;;11.21;100.00;99108.69;5046543;28;20059;-87
2021/12/30 10:03:24;;;;;;;3.13;1.50;;;;;;;11.35;100.00;99118.22;5044636;28;20073;-86
2021/12/30 10:05:51;;;;;;;2.05;1.02;;;;;;;11.11;100.00;99078.81;5054340;28;20056;-87
2021/12/30 10:08:24;;;;;;;1.95;1.08;;;;;;;11.26;100.00;99132.81;5026734;28;20053;-85
2021/12/30 10:10:57;;;;;;;1.77;0.90;;;;;;;11.47;100.00;99120.03;5042650;28;20537;-86
2021/12/30 10:13:29;;;;;;;1.88;1.10;;;;;;;11.17;100.00;99118.53;5043657;28;20045;-85
2021/12/30 10:16:00;;;;;;;4.25;1.35;;;;;;;11.12;100.00;99068.22;5039651;28;20045;-86
2021/12/30 10:18:43;;;;;;;2.78;1.10;;;;;;;11.52;100.00;99110.09;5042590;28;20121;-84
2021/12/30 10:21:29;;;;;;;2.10;1.05;;;;;;;11.83;100.00;99136.84;5024726;28;20478;-87
2021/12/30 10:24:02;;;;;;;2.63;1.25;;;;;;;11.51;100.00;99103.19;5037517;28;20398;-87
2021/12/30 10:26:30;;;;;;;2.33;1.10;;;;;;;11.88;100.00;99126.91;5028698;28;20053;-87
2021/12/30 10:29:00;;;;;;;1.75;1.02;;;;;;;11.86;100.00;99091.22;5043972;28;20057;-87
2021/12/30 10:31:36;;;;;;;4.13;1.45;;;;;;;11.85;100.00;99082.53;5037027;28;20108;-87
2021/12/30 10:34:12;;;;;;;4.38;1.35;;;;;;;11.64;100.00;99060.41;5031694;28;20109;-88
2021/12/30 10:36:50;;;;;;;3.22;1.27;;;;;;;12.00;100.00;99119.16;5027730;28;20057;-86
2021/12/30 10:39:23;;;;;;;2.75;1.10;;;;;;;12.35;100.00;99122.75;5030602;28;20055;-86
2021/12/30 10:42:21;;;;;;;2.97;1.13;;;;;;;12.29;100.00;99117.97;5022927;28;20041;-87
2021/12/30 10:44:58;;;;;;;4.22;1.10;;;;;;;12.44;100.00;99131.78;5051250;28;20100;-88
2021/12/30 10:47:32;;;;;;;3.05;1.20;;;;;;;12.33;100.00;99122.03;5044262;28;20128;-89
2021/12/30 10:50:09;;;;;;;4.47;1.10;;;;;;;12.37;100.00;99106.91;5035674;28;20037;-89
2021/12/30 10:52:53;;;;;;;3.35;1.10;;;;;;;12.18;100.00;99112.59;5032673;28;20053;-89
2021/12/30 10:55:34;;;;;;;2.72;1.30;;;;;;;12.11;100.00;99101.72;5034166;28;20053;-87
2021/12/30 10:58:23;;;;;;;2.17;1.10;;;;;;;12.70;100.00;99144.84;5030538;28;20084;-88
2021/12/30 11:00:52;;;;;;;1.55;0.98;;;;;;;12.68;100.00;99147.56;5025686;28;20067;-89
2021/12/30 11:03:33;;;;;;;1.20;0.90;;;;;;;12.46;100.00;99122.00;5026624;28;20076;-87
2021/12/30 11:06:18;;;;;;;2.42;1.00;;;;;;;12.48;100.00;99107.00;5026521;28;20072;-86
2021/12/30 11:08:49;;;;;;;3.08;0.90;;;;;;;12.85;100.00;99153.38;5044319;28;20101;-87
2021/12/30 11:11:28;;;;;;;2.38;1.02;;;;;;;12.75;100.00;99112.97;5029189;28;20129;-86
2021/12/30 11:14:08;;;;;;;2.22;1.10;;;;;;;12.51;100.00;99105.94;5042454;28;20037;-86
2021/12/30 11:16:52;;;;;;;4.10;1.30;;;;;;;13.02;100.00;99145.13;5023690;28;20097;-87
2021/12/30 11:19:23;;;;;;;1.70;0.80;;;;;;;12.87;100.00;99131.34;5044190;28;20077;-88
2021/12/30 11:21:58;;;;;;;1.75;1.00;;;;;;;12.58;100.00;99138.66;5033301;28;20052;-88
2021/12/30 11:24:31;;;;;;;3.85;1.00;;;;;;;13.00;100.00;99168.06;5025519;28;20056;-85
2021/12/30 11:26:58;;;;;;;3.10;1.08;;;;;;;12.87;100.00;99148.84;5040674;28;20144;-87
2021/12/30 11:29:26;;;;;;;3.08;1.20;;;;;;;13.00;100.00;99170.69;5024883;28;20061;-86
2021/12/30 11:31:58;;;;;;;3.95;0.98;;;;;;;12.89;100.00;99134.69;5027256;28;20045;-85